sensor_id;sensor_type;location;lat;lon;timestamp;P1;durP1;ratioP1;P2;durP2;ratioP2
27758;SDS011;15148;48.972;12.794;2022-12-05T00:00:06;34.65;;;24.73;;
27758;SDS011;15148;48.972;12.794;2022-12-05T00:05:09;39.58;;;27.23;;
27758;SDS011;15148;48.972;12.794;2022-12-05T00:10:12;36.55;;;23.98;;
27758;SDS011;15148;48.972;12.794;2022-12-05T00:15:14;34.17;;;24.75;;
27758;SDS011;15148;48.972;12.794;2022-12-05T00:20:16;36.45;;;25.42;;
27758;SDS011;15148;48.972;12.794;2022-12-05T00:25:18;38.72;;;26.10;;
27758;SDS011;15148;48.972;12.794;2022-12-05T00:30:20;35.13;;;26.52;;
27758;SDS011;15148;48.972;12.794;2022-12-05T00:35:22;37.42;;;26.15;;
27758;SDS011;15148;48.972;12.794;2022-12-05T00:40:24;34.63;;;25.20;;
27758;SDS011;15148;48.972;12.794;2022-12-05T00:45:26;31.63;;;24.92;;
27758;SDS011;15148;48.972;12.794;2022-12-05T00:50:28;37.15;;;26.88;;
27758;SDS011;15148;48.972;12.794;2022-12-05T00:55:30;40.13;;;26.65;;
27758;SDS011;15148;48.972;12.794;2022-12-05T01:00:31;40.15;;;27.77;;
27758;SDS011;15148;48.972;12.794;2022-12-05T01:05:33;38.03;;;26.83;;
27758;SDS011;15148;48.972;12.794;2022-12-05T01:10:35;34.58;;;26.05;;
27758;SDS011;15148;48.972;12.794;2022-12-05T01:15:37;36.25;;;26.77;;
27758;SDS011;15148;48.972;12.794;2022-12-05T01:20:39;39.25;;;27.67;;
27758;SDS011;15148;48.972;12.794;2022-12-05T01:25:43;42.97;;;29.15;;
27758;SDS011;15148;48.972;12.794;2022-12-05T01:30:48;44.15;;;29.20;;
27758;SDS011;15148;48.972;12.794;2022-12-05T01:35:50;39.10;;;26.92;;
27758;SDS011;15148;48.972;12.794;2022-12-05T01:41:02;48.92;;;30.42;;
27758;SDS011;15148;48.972;12.794;2022-12-05T01:46:05;42.22;;;28.92;;
27758;SDS011;15148;48.972;12.794;2022-12-05T01:51:07;48.63;;;30.08;;
27758;SDS011;15148;48.972;12.794;2022-12-05T01:56:09;43.53;;;30.27;;
27758;SDS011;15148;48.972;12.794;2022-12-05T02:01:11;47.83;;;30.58;;
27758;SDS011;15148;48.972;12.794;2022-12-05T02:06:16;46.13;;;29.40;;
27758;SDS011;15148;48.972;12.794;2022-12-05T02:11:18;48.40;;;28.88;;
27758;SDS011;15148;48.972;12.794;2022-12-05T02:16:41;49.17;;;29.20;;
27758;SDS011;15148;48.972;12.794;2022-12-05T02:42:49;44.23;;;29.27;;
27758;SDS011;15148;48.972;12.794;2022-12-05T02:47:56;52.50;;;29.33;;
27758;SDS011;15148;48.972;12.794;2022-12-05T02:53:06;48.70;;;28.45;;
27758;SDS011;15148;48.972;12.794;2022-12-05T02:58:16;40.08;;;25.00;;
27758;SDS011;15148;48.972;12.794;2022-12-05T03:03:23;43.17;;;24.02;;
27758;SDS011;15148;48.972;12.794;2022-12-05T03:08:27;44.00;;;24.42;;
27758;SDS011;15148;48.972;12.794;2022-12-05T03:19:04;40.25;;;21.25;;
27758;SDS011;15148;48.972;12.794;2022-12-05T03:24:12;33.53;;;21.38;;
27758;SDS011;15148;48.972;12.794;2022-12-05T03:29:24;37.65;;;20.77;;
27758;SDS011;15148;48.972;12.794;2022-12-05T03:35:01;30.38;;;18.45;;
27758;SDS011;15148;48.972;12.794;2022-12-05T03:50:19;30.75;;;17.98;;
27758;SDS011;15148;48.972;12.794;2022-12-05T03:55:26;28.48;;;17.15;;
27758;SDS011;15148;48.972;12.794;2022-12-05T04:00:31;34.17;;;18.58;;
27758;SDS011;15148;48.972;12.794;2022-12-05T04:05:39;31.75;;;18.63;;
27758;SDS011;15148;48.972;12.794;2022-12-05T04:11:02;35.80;;;18.95;;
27758;SDS011;15148;48.972;12.794;2022-12-05T04:16:11;35.67;;;18.83;;
27758;SDS011;15148;48.972;12.794;2022-12-05T04:21:39;36.13;;;18.80;;
27758;SDS011;15148;48.972;12.794;2022-12-05T04:26:45;29.07;;;17.33;;
27758;SDS011;15148;48.972;12.794;2022-12-05T04:31:56;28.98;;;17.45;;
27758;SDS011;15148;48.972;12.794;2022-12-05T04:37:03;31.02;;;16.70;;
27758;SDS011;15148;48.972;12.794;2022-12-05T04:42:13;30.58;;;16.52;;
27758;SDS011;15148;48.972;12.794;2022-12-05T04:47:18;26.80;;;16.42;;
27758;SDS011;15148;48.972;12.794;2022-12-05T04:52:24;27.52;;;17.25;;
27758;SDS011;15148;48.972;12.794;2022-12-05T04:57:32;27.40;;;16.23;;
27758;SDS011;15148;48.972;12.794;2022-12-05T05:08:32;29.92;;;19.08;;
27758;SDS011;15148;48.972;12.794;2022-12-05T05:13:34;26.95;;;15.73;;
27758;SDS011;15148;48.972;12.794;2022-12-05T05:18:36;64.13;;;45.25;;
27758;SDS011;15148;48.972;12.794;2022-12-05T05:23:38;32.78;;;20.45;;
27758;SDS011;15148;48.972;12.794;2022-12-05T05:28:40;29.20;;;16.25;;
27758;SDS011;15148;48.972;12.794;2022-12-05T05:33:42;28.00;;;16.20;;
27758;SDS011;15148;48.972;12.794;2022-12-05T05:38:44;29.38;;;15.30;;
27758;SDS011;15148;48.972;12.794;2022-12-05T05:43:48;28.52;;;16.48;;
27758;SDS011;15148;48.972;12.794;2022-12-05T05:48:51;30.63;;;16.67;;
27758;SDS011;15148;48.972;12.794;2022-12-05T05:53:53;23.05;;;14.80;;
27758;SDS011;15148;48.972;12.794;2022-12-05T05:59:00;30.55;;;15.95;;
27758;SDS011;15148;48.972;12.794;2022-12-05T06:09:05;23.20;;;15.25;;
27758;SDS011;15148;48.972;12.794;2022-12-05T06:14:08;28.55;;;17.35;;
27758;SDS011;15148;48.972;12.794;2022-12-05T06:19:10;24.80;;;15.75;;
27758;SDS011;15148;48.972;12.794;2022-12-05T06:24:11;26.20;;;16.75;;
27758;SDS011;15148;48.972;12.794;2022-12-05T06:29:13;26.85;;;16.52;;
27758;SDS011;15148;48.972;12.794;2022-12-05T06:34:15;23.38;;;16.30;;
27758;SDS011;15148;48.972;12.794;2022-12-05T06:39:17;24.05;;;17.10;;
27758;SDS011;15148;48.972;12.794;2022-12-05T06:44:19;25.35;;;15.95;;
27758;SDS011;15148;48.972;12.794;2022-12-05T06:49:22;29.00;;;18.13;;
27758;SDS011;15148;48.972;12.794;2022-12-05T06:54:32;28.42;;;18.45;;
27758;SDS011;15148;48.972;12.794;2022-12-05T06:59:34;29.70;;;18.88;;
27758;SDS011;15148;48.972;12.794;2022-12-05T07:04:36;30.10;;;18.85;;
27758;SDS011;15148;48.972;12.794;2022-12-05T07:09:38;31.65;;;19.10;;
27758;SDS011;15148;48.972;12.794;2022-12-05T07:14:46;25.23;;;17.85;;
27758;SDS011;15148;48.972;12.794;2022-12-05T07:19:50;27.63;;;18.90;;
27758;SDS011;15148;48.972;12.794;2022-12-05T07:24:53;26.35;;;17.52;;
27758;SDS011;15148;48.972;12.794;2022-12-05T07:29:55;24.63;;;17.50;;
27758;SDS011;15148;48.972;12.794;2022-12-05T07:34:57;26.90;;;18.17;;
27758;SDS011;15148;48.972;12.794;2022-12-05T07:39:59;28.48;;;17.98;;
27758;SDS011;15148;48.972;12.794;2022-12-05T07:45:01;26.42;;;18.30;;
27758;SDS011;15148;48.972;12.794;2022-12-05T07:50:03;26.67;;;18.20;;
27758;SDS011;15148;48.972;12.794;2022-12-05T07:55:06;24.45;;;17.02;;
27758;SDS011;15148;48.972;12.794;2022-12-05T08:00:08;25.60;;;18.65;;
27758;SDS011;15148;48.972;12.794;2022-12-05T08:05:13;23.83;;;17.67;;
27758;SDS011;15148;48.972;12.794;2022-12-05T08:10:15;26.60;;;18.80;;
27758;SDS011;15148;48.972;12.794;2022-12-05T08:15:17;27.92;;;18.85;;
27758;SDS011;15148;48.972;12.794;2022-12-05T08:20:19;24.58;;;17.42;;
27758;SDS011;15148;48.972;12.794;2022-12-05T08:25:21;26.63;;;19.15;;
27758;SDS011;15148;48.972;12.794;2022-12-05T08:30:22;27.63;;;17.73;;
27758;SDS011;15148;48.972;12.794;2022-12-05T08:35:24;26.33;;;17.58;;
27758;SDS011;15148;48.972;12.794;2022-12-05T08:40:26;26.38;;;17.17;;
27758;SDS011;15148;48.972;12.794;2022-12-05T08:45:28;23.90;;;16.33;;
27758;SDS011;15148;48.972;12.794;2022-12-05T08:50:30;23.17;;;15.60;;
27758;SDS011;15148;48.972;12.794;2022-12-05T08:55:33;21.92;;;16.20;;
27758;SDS011;15148;48.972;12.794;2022-12-05T09:00:35;22.70;;;15.00;;
27758;SDS011;15148;48.972;12.794;2022-12-05T09:05:37;22.60;;;14.77;;
27758;SDS011;15148;48.972;12.794;2022-12-05T09:10:39;24.50;;;16.02;;
27758;SDS011;15148;48.972;12.794;2022-12-05T09:15:41;25.30;;;15.35;;
27758;SDS011;15148;48.972;12.794;2022-12-05T09:20:43;25.60;;;17.05;;
27758;SDS011;15148;48.972;12.794;2022-12-05T09:25:51;29.63;;;19.20;;
27758;SDS011;15148;48.972;12.794;2022-12-05T09:30:55;31.75;;;19.15;;
27758;SDS011;15148;48.972;12.794;2022-12-05T09:36:05;32.05;;;19.88;;
27758;SDS011;15148;48.972;12.794;2022-12-05T09:52:33;32.45;;;19.25;;
27758;SDS011;15148;48.972;12.794;2022-12-05T09:57:44;31.92;;;18.75;;
27758;SDS011;15148;48.972;12.794;2022-12-05T10:03:12;26.55;;;16.42;;
27758;SDS011;15148;48.972;12.794;2022-12-05T10:08:31;34.47;;;20.17;;
27758;SDS011;15148;48.972;12.794;2022-12-05T10:18:54;36.15;;;20.67;;
27758;SDS011;15148;48.972;12.794;2022-12-05T10:24:01;42.55;;;22.17;;
27758;SDS011;15148;48.972;12.794;2022-12-05T10:34:19;39.35;;;23.48;;
27758;SDS011;15148;48.972;12.794;2022-12-05T10:39:23;45.83;;;24.35;;
27758;SDS011;15148;48.972;12.794;2022-12-05T10:44:25;42.72;;;22.60;;
27758;SDS011;15148;48.972;12.794;2022-12-05T10:49:27;48.05;;;23.25;;
27758;SDS011;15148;48.972;12.794;2022-12-05T10:54:32;42.17;;;22.80;;
27758;SDS011;15148;48.972;12.794;2022-12-05T10:59:43;40.88;;;22.50;;
27758;SDS011;15148;48.972;12.794;2022-12-05T11:04:47;41.17;;;21.67;;
27758;SDS011;15148;48.972;12.794;2022-12-05T11:09:50;39.88;;;21.10;;
27758;SDS011;15148;48.972;12.794;2022-12-05T11:15:10;40.20;;;21.65;;
27758;SDS011;15148;48.972;12.794;2022-12-05T11:25:35;38.47;;;21.35;;
27758;SDS011;15148;48.972;12.794;2022-12-05T11:30:37;40.25;;;22.15;;
27758;SDS011;15148;48.972;12.794;2022-12-05T11:35:39;39.20;;;20.92;;
27758;SDS011;15148;48.972;12.794;2022-12-05T11:40:45;44.17;;;22.73;;
27758;SDS011;15148;48.972;12.794;2022-12-05T11:46:17;42.03;;;22.65;;
27758;SDS011;15148;48.972;12.794;2022-12-05T11:51:41;42.22;;;23.13;;
27758;SDS011;15148;48.972;12.794;2022-12-05T11:56:56;42.45;;;22.50;;
27758;SDS011;15148;48.972;12.794;2022-12-05T12:07:41;36.30;;;20.95;;
27758;SDS011;15148;48.972;12.794;2022-12-05T12:13:29;36.42;;;19.92;;
27758;SDS011;15148;48.972;12.794;2022-12-05T12:29:33;33.75;;;19.08;;
27758;SDS011;15148;48.972;12.794;2022-12-05T12:40:28;31.38;;;18.55;;
27758;SDS011;15148;48.972;12.794;2022-12-05T12:45:46;29.52;;;16.65;;
27758;SDS011;15148;48.972;12.794;2022-12-05T12:50:56;28.23;;;16.83;;
27758;SDS011;15148;48.972;12.794;2022-12-05T13:01:35;24.80;;;15.98;;
27758;SDS011;15148;48.972;12.794;2022-12-05T13:07:07;27.70;;;16.38;;
27758;SDS011;15148;48.972;12.794;2022-12-05T13:12:27;24.30;;;16.52;;
27758;SDS011;15148;48.972;12.794;2022-12-05T13:17:33;32.13;;;17.60;;
27758;SDS011;15148;48.972;12.794;2022-12-05T13:22:39;23.10;;;14.63;;
27758;SDS011;15148;48.972;12.794;2022-12-05T13:27:51;26.30;;;14.77;;
27758;SDS011;15148;48.972;12.794;2022-12-05T13:33:00;23.77;;;14.88;;
27758;SDS011;15148;48.972;12.794;2022-12-05T13:38:19;22.75;;;14.73;;
27758;SDS011;15148;48.972;12.794;2022-12-05T13:43:47;23.58;;;14.25;;
27758;SDS011;15148;48.972;12.794;2022-12-05T13:49:14;23.77;;;14.48;;
27758;SDS011;15148;48.972;12.794;2022-12-05T13:54:25;24.10;;;14.23;;
27758;SDS011;15148;48.972;12.794;2022-12-05T14:10:21;27.42;;;16.38;;
27758;SDS011;15148;48.972;12.794;2022-12-05T14:41:58;113.22;;;48.97;;
27758;SDS011;15148;48.972;12.794;2022-12-05T14:52:07;22.08;;;14.40;;
27758;SDS011;15148;48.972;12.794;2022-12-05T14:57:12;24.42;;;14.18;;
27758;SDS011;15148;48.972;12.794;2022-12-05T15:02:19;22.27;;;13.77;;
27758;SDS011;15148;48.972;12.794;2022-12-05T15:07:45;23.40;;;14.25;;
27758;SDS011;15148;48.972;12.794;2022-12-05T15:12:48;21.48;;;15.02;;
27758;SDS011;15148;48.972;12.794;2022-12-05T15:18:48;20.42;;;13.23;;
27758;SDS011;15148;48.972;12.794;2022-12-05T15:23:45;19.90;;;13.43;;
27758;SDS011;15148;48.972;12.794;2022-12-05T15:29:04;20.88;;;12.85;;
27758;SDS011;15148;48.972;12.794;2022-12-05T15:39:51;42.92;;;33.53;;
27758;SDS011;15148;48.972;12.794;2022-12-05T15:45:10;24.80;;;15.23;;
27758;SDS011;15148;48.972;12.794;2022-12-05T15:50:16;23.45;;;14.93;;
27758;SDS011;15148;48.972;12.794;2022-12-05T16:00:39;29.85;;;18.35;;
27758;SDS011;15148;48.972;12.794;2022-12-05T16:05:46;29.67;;;17.63;;
27758;SDS011;15148;48.972;12.794;2022-12-05T16:10:52;28.80;;;17.02;;
27758;SDS011;15148;48.972;12.794;2022-12-05T16:15:55;23.35;;;16.58;;
27758;SDS011;15148;48.972;12.794;2022-12-05T16:20:57;28.80;;;16.83;;
27758;SDS011;15148;48.972;12.794;2022-12-05T16:26:09;28.50;;;15.23;;
27758;SDS011;15148;48.972;12.794;2022-12-05T16:31:21;21.63;;;14.05;;
27758;SDS011;15148;48.972;12.794;2022-12-05T16:36:23;24.40;;;16.30;;
27758;SDS011;15148;48.972;12.794;2022-12-05T16:41:32;26.95;;;14.18;;
27758;SDS011;15148;48.972;12.794;2022-12-05T16:51:42;21.23;;;14.43;;
27758;SDS011;15148;48.972;12.794;2022-12-05T16:56:46;23.23;;;14.80;;
27758;SDS011;15148;48.972;12.794;2022-12-05T17:01:47;24.95;;;15.80;;
27758;SDS011;15148;48.972;12.794;2022-12-05T17:06:49;28.38;;;18.45;;
27758;SDS011;15148;48.972;12.794;2022-12-05T17:11:53;23.88;;;16.35;;
27758;SDS011;15148;48.972;12.794;2022-12-05T17:17:01;21.70;;;14.77;;
27758;SDS011;15148;48.972;12.794;2022-12-05T17:22:03;23.15;;;14.27;;
27758;SDS011;15148;48.972;12.794;2022-12-05T17:27:10;19.45;;;12.60;;
27758;SDS011;15148;48.972;12.794;2022-12-05T17:32:12;18.40;;;12.48;;
27758;SDS011;15148;48.972;12.794;2022-12-05T17:37:15;21.20;;;14.05;;
27758;SDS011;15148;48.972;12.794;2022-12-05T17:42:16;20.50;;;13.77;;
27758;SDS011;15148;48.972;12.794;2022-12-05T17:47:19;24.38;;;14.82;;
27758;SDS011;15148;48.972;12.794;2022-12-05T17:52:21;20.88;;;14.15;;
27758;SDS011;15148;48.972;12.794;2022-12-05T17:57:23;24.45;;;14.88;;
27758;SDS011;15148;48.972;12.794;2022-12-05T18:02:25;24.90;;;15.30;;
27758;SDS011;15148;48.972;12.794;2022-12-05T18:07:26;28.60;;;16.92;;
27758;SDS011;15148;48.972;12.794;2022-12-05T18:12:28;26.95;;;17.38;;
27758;SDS011;15148;48.972;12.794;2022-12-05T18:17:30;23.83;;;16.42;;
27758;SDS011;15148;48.972;12.794;2022-12-05T18:22:32;21.75;;;14.48;;
27758;SDS011;15148;48.972;12.794;2022-12-05T18:27:36;25.23;;;16.70;;
27758;SDS011;15148;48.972;12.794;2022-12-05T18:32:38;19.77;;;13.32;;
27758;SDS011;15148;48.972;12.794;2022-12-05T18:37:40;16.02;;;11.70;;
27758;SDS011;15148;48.972;12.794;2022-12-05T18:42:42;19.92;;;12.30;;
27758;SDS011;15148;48.972;12.794;2022-12-05T18:47:43;18.75;;;12.63;;
27758;SDS011;15148;48.972;12.794;2022-12-05T18:52:46;19.85;;;13.80;;
27758;SDS011;15148;48.972;12.794;2022-12-05T18:57:47;21.15;;;14.07;;
27758;SDS011;15148;48.972;12.794;2022-12-05T19:02:50;15.80;;;10.85;;
27758;SDS011;15148;48.972;12.794;2022-12-05T19:07:52;17.10;;;11.07;;
27758;SDS011;15148;48.972;12.794;2022-12-05T19:12:54;16.33;;;11.10;;
27758;SDS011;15148;48.972;12.794;2022-12-05T19:17:57;15.07;;;10.30;;
27758;SDS011;15148;48.972;12.794;2022-12-05T19:22:59;16.27;;;10.63;;
27758;SDS011;15148;48.972;12.794;2022-12-05T19:28:02;18.95;;;12.00;;
27758;SDS011;15148;48.972;12.794;2022-12-05T19:33:04;18.45;;;13.52;;
27758;SDS011;15148;48.972;12.794;2022-12-05T19:38:10;19.88;;;13.20;;
27758;SDS011;15148;48.972;12.794;2022-12-05T19:43:13;25.13;;;17.77;;
27758;SDS011;15148;48.972;12.794;2022-12-05T19:48:16;23.13;;;15.88;;
27758;SDS011;15148;48.972;12.794;2022-12-05T19:53:20;21.67;;;15.43;;
27758;SDS011;15148;48.972;12.794;2022-12-05T19:58:23;19.92;;;14.05;;
27758;SDS011;15148;48.972;12.794;2022-12-05T20:03:26;25.05;;;15.05;;
27758;SDS011;15148;48.972;12.794;2022-12-05T20:08:29;19.65;;;13.40;;
27758;SDS011;15148;48.972;12.794;2022-12-05T20:13:34;20.98;;;14.18;;
27758;SDS011;15148;48.972;12.794;2022-12-05T20:18:53;18.95;;;13.88;;
27758;SDS011;15148;48.972;12.794;2022-12-05T20:23:59;17.33;;;12.30;;
27758;SDS011;15148;48.972;12.794;2022-12-05T20:29:02;19.20;;;12.75;;
27758;SDS011;15148;48.972;12.794;2022-12-05T20:34:08;17.90;;;12.88;;
27758;SDS011;15148;48.972;12.794;2022-12-05T20:39:15;20.95;;;14.30;;
27758;SDS011;15148;48.972;12.794;2022-12-05T20:44:18;19.55;;;13.80;;
27758;SDS011;15148;48.972;12.794;2022-12-05T20:49:21;21.95;;;14.80;;
27758;SDS011;15148;48.972;12.794;2022-12-05T20:54:23;21.05;;;12.63;;
27758;SDS011;15148;48.972;12.794;2022-12-05T20:59:26;21.55;;;13.70;;
27758;SDS011;15148;48.972;12.794;2022-12-05T21:04:28;19.38;;;12.00;;
27758;SDS011;15148;48.972;12.794;2022-12-05T21:09:30;11.18;;;9.05;;
27758;SDS011;15148;48.972;12.794;2022-12-05T21:14:35;16.65;;;12.00;;
27758;SDS011;15148;48.972;12.794;2022-12-05T21:19:37;13.98;;;9.40;;
27758;SDS011;15148;48.972;12.794;2022-12-05T21:24:39;8.73;;;6.60;;
27758;SDS011;15148;48.972;12.794;2022-12-05T21:29:41;9.63;;;7.00;;
27758;SDS011;15148;48.972;12.794;2022-12-05T21:34:43;6.65;;;5.72;;
27758;SDS011;15148;48.972;12.794;2022-12-05T21:39:45;6.93;;;6.07;;
27758;SDS011;15148;48.972;12.794;2022-12-05T21:44:47;9.48;;;7.38;;
27758;SDS011;15148;48.972;12.794;2022-12-05T21:49:48;9.38;;;6.43;;
27758;SDS011;15148;48.972;12.794;2022-12-05T21:54:50;8.15;;;3.97;;
27758;SDS011;15148;48.972;12.794;2022-12-05T21:59:53;4.85;;;4.00;;
27758;SDS011;15148;48.972;12.794;2022-12-05T22:04:54;6.68;;;3.40;;
27758;SDS011;15148;48.972;12.794;2022-12-05T22:09:56;3.70;;;3.25;;
27758;SDS011;15148;48.972;12.794;2022-12-05T22:14:58;3.88;;;3.05;;
27758;SDS011;15148;48.972;12.794;2022-12-05T22:20:01;2.60;;;2.38;;
27758;SDS011;15148;48.972;12.794;2022-12-05T22:25:03;5.45;;;3.58;;
27758;SDS011;15148;48.972;12.794;2022-12-05T22:30:06;4.93;;;3.65;;
27758;SDS011;15148;48.972;12.794;2022-12-05T22:35:08;5.78;;;3.60;;
27758;SDS011;15148;48.972;12.794;2022-12-05T22:40:10;4.88;;;3.78;;
27758;SDS011;15148;48.972;12.794;2022-12-05T22:45:12;5.43;;;3.78;;
27758;SDS011;15148;48.972;12.794;2022-12-05T22:50:14;4.45;;;3.42;;
27758;SDS011;15148;48.972;12.794;2022-12-05T22:55:16;3.40;;;3.10;;
27758;SDS011;15148;48.972;12.794;2022-12-05T23:00:18;2.80;;;2.58;;
27758;SDS011;15148;48.972;12.794;2022-12-05T23:05:20;2.50;;;2.30;;
27758;SDS011;15148;48.972;12.794;2022-12-05T23:10:22;3.10;;;2.80;;
27758;SDS011;15148;48.972;12.794;2022-12-05T23:15:24;3.20;;;2.90;;
27758;SDS011;15148;48.972;12.794;2022-12-05T23:20:26;3.53;;;3.22;;
27758;SDS011;15148;48.972;12.794;2022-12-05T23:25:29;4.35;;;3.42;;
27758;SDS011;15148;48.972;12.794;2022-12-05T23:30:31;4.38;;;3.97;;
27758;SDS011;15148;48.972;12.794;2022-12-05T23:35:33;4.35;;;3.95;;
27758;SDS011;15148;48.972;12.794;2022-12-05T23:40:35;5.15;;;3.92;;
27758;SDS011;15148;48.972;12.794;2022-12-05T23:45:37;4.75;;;4.28;;
27758;SDS011;15148;48.972;12.794;2022-12-05T23:50:39;4.30;;;3.80;;
27758;SDS011;15148;48.972;12.794;2022-12-05T23:55:41;4.63;;;4.20;;
